createdAt,value
2023-04-14T00:00:01.353Z,98753.88
2023-04-14T00:02:29.244Z,98760.72
2023-04-14T00:05:02.425Z,98765.03
2023-04-14T00:07:30.733Z,98760.47
2023-04-14T00:09:59.120Z,98746.47
2023-04-14T00:12:26.731Z,98745.66
2023-04-14T00:14:53.861Z,98753.81
2023-04-14T00:17:22.257Z,98750.84
2023-04-14T00:19:49.691Z,98757.06
2023-04-14T00:22:16.839Z,98760.97
2023-04-14T00:24:45.844Z,98758.84
2023-04-14T00:27:13.186Z,98762.22
2023-04-14T00:29:40.578Z,98773.03
2023-04-14T00:32:09.072Z,98785.69
2023-04-14T00:34:36.245Z,98793.69
2023-04-14T00:37:03.442Z,98809.78
2023-04-14T00:39:30.568Z,98817.63
2023-04-14T00:41:57.574Z,98839.66
2023-04-14T00:44:25.696Z,98834.56
2023-04-14T00:46:53.236Z,98849.38
2023-04-14T00:49:20.792Z,98862.41
2023-04-14T00:51:48.393Z,98869.53
2023-04-14T00:54:18.496Z,98862.69
2023-04-14T00:56:47.423Z,98856.13
2023-04-14T00:59:14.672Z,98853.56
2023-04-14T01:01:41.904Z,98844.53
2023-04-14T01:04:09.552Z,98841.75
2023-04-14T01:06:37.007Z,98824.78
2023-04-14T01:09:04.755Z,98820.00
2023-04-14T01:11:45.606Z,98808.53
2023-04-14T01:14:18.318Z,98816.72
2023-04-14T01:16:49.911Z,98818.19
2023-04-14T01:19:47.318Z,98806.03
2023-04-14T01:22:18.945Z,98791.59
2023-04-14T01:24:52.390Z,98791.78
2023-04-14T01:27:38.537Z,98780.19
2023-04-14T01:30:33.084Z,98784.56
2023-04-14T01:33:06.263Z,98790.66
2023-04-14T01:35:46.008Z,98781.09
2023-04-14T01:38:25.458Z,98780.63
2023-04-14T01:40:57.676Z,98779.84
2023-04-14T01:43:31.090Z,98780.78
2023-04-14T01:46:01.934Z,98774.53
2023-04-14T01:48:31.103Z,98756.75
2023-04-14T01:50:59.916Z,98761.06
2023-04-14T01:53:28.815Z,98768.25
2023-04-14T01:55:58.100Z,98765.91
2023-04-14T01:58:26.845Z,98755.75
2023-04-14T02:00:54.319Z,98768.63
2023-04-14T02:03:22.750Z,98762.41
2023-04-14T02:05:52.926Z,98765.44
2023-04-14T02:08:21.605Z,98771.69
2023-04-14T02:10:50.614Z,98760.44
2023-04-14T02:13:20.187Z,98754.06
2023-04-14T02:15:51.282Z,98746.00
2023-04-14T02:18:20.388Z,98736.19
2023-04-14T02:20:49.166Z,98719.75
2023-04-14T02:23:16.552Z,98719.41
2023-04-14T02:25:54.159Z,98732.81
2023-04-14T02:28:23.809Z,98725.22
2023-04-14T02:30:54.583Z,98724.56
2023-04-14T02:33:23.544Z,98736.81
2023-04-14T02:36:14.282Z,98729.03
2023-04-14T02:38:55.446Z,98728.25
2023-04-14T02:41:33.487Z,98718.09
2023-04-14T02:44:12.721Z,98723.84
2023-04-14T02:46:51.848Z,98715.88
2023-04-14T02:49:21.665Z,98709.62
2023-04-14T02:51:48.880Z,98707.81
2023-04-14T02:54:19.731Z,98692.09
2023-04-14T02:56:48.019Z,98695.22
2023-04-14T02:59:15.565Z,98694.06
2023-04-14T03:01:44.117Z,98689.37
2023-04-14T03:04:11.706Z,98684.38
2023-04-14T03:06:40.752Z,98697.63
2023-04-14T03:09:08.010Z,98690.28
2023-04-14T03:11:37.525Z,98687.22
2023-04-14T03:14:04.757Z,98685.94
2023-04-14T03:16:34.593Z,98684.94
2023-04-14T03:19:02.687Z,98679.47
2023-04-14T03:21:31.689Z,98684.38
2023-04-14T03:24:00.250Z,98692.44
2023-04-14T03:26:30.176Z,98700.06
2023-04-14T03:28:59.175Z,98699.91
2023-04-14T03:31:33.144Z,98709.31
2023-04-14T03:34:03.286Z,98704.59
2023-04-14T03:36:32.550Z,98709.09
2023-04-14T03:39:03.165Z,98696.25
2023-04-14T03:41:32.393Z,98687.06
2023-04-14T03:44:00.588Z,98677.47
2023-04-14T03:46:29.529Z,98690.84
2023-04-14T03:49:00.090Z,98701.41
2023-04-14T03:51:29.744Z,98708.94
2023-04-14T03:53:58.683Z,98721.59
2023-04-14T03:56:27.254Z,98717.31
2023-04-14T03:58:56.674Z,98717.88
2023-04-14T04:01:26.226Z,98719.50
2023-04-14T04:03:58.570Z,98718.59
2023-04-14T04:06:26.077Z,98710.91
2023-04-14T04:08:54.239Z,98703.53
2023-04-14T04:11:23.340Z,98698.63
2023-04-14T04:13:52.120Z,98699.44
2023-04-14T04:16:20.858Z,98698.13
2023-04-14T04:18:49.674Z,98704.56
2023-04-14T04:21:18.994Z,98711.69
2023-04-14T04:23:53.613Z,98699.00
2023-04-14T04:26:20.988Z,98705.28
2023-04-14T04:28:48.710Z,98708.94
2023-04-14T04:31:17.200Z,98718.91
2023-04-14T04:33:46.959Z,98714.69
2023-04-14T04:36:14.659Z,98719.75
2023-04-14T04:38:43.198Z,98719.53
2023-04-14T04:41:27.646Z,98729.13
2023-04-14T04:43:55.250Z,98718.25
2023-04-14T04:46:44.415Z,98722.22
2023-04-14T04:49:11.540Z,98712.37
2023-04-14T04:51:38.824Z,98732.88
2023-04-14T04:54:06.930Z,98733.06
2023-04-14T04:56:34.352Z,98737.25
2023-04-14T04:59:02.112Z,98747.12
2023-04-14T05:01:29.571Z,98748.03
2023-04-14T05:03:57.181Z,98749.63
2023-04-14T05:06:24.901Z,98769.91
2023-04-14T05:08:53.179Z,98770.47
2023-04-14T05:11:21.085Z,98777.19
2023-04-14T05:13:48.391Z,98777.56
2023-04-14T05:16:16.149Z,98776.16
2023-04-14T05:18:46.606Z,98769.22
2023-04-14T05:21:14.848Z,98765.47
2023-04-14T05:23:45.933Z,98762.00
2023-04-14T05:26:38.871Z,98764.09
2023-04-14T05:29:01.929Z,98764.63
2023-04-14T05:31:29.160Z,98751.25
2023-04-14T05:33:56.488Z,98757.22
2023-04-14T05:36:23.455Z,98756.84
2023-04-14T05:38:50.792Z,98761.16
2023-04-14T05:41:17.862Z,98752.28
2023-04-14T05:43:44.991Z,98743.81
2023-04-14T05:46:14.135Z,98731.50
2023-04-14T05:48:41.687Z,98723.13
2023-04-14T05:51:08.828Z,98714.53
2023-04-14T05:53:36.414Z,98700.81
2023-04-14T05:56:05.615Z,98706.59
2023-04-14T05:58:32.626Z,98694.28
2023-04-14T06:01:00.218Z,98697.53
2023-04-14T06:03:27.599Z,98697.75
2023-04-14T06:06:06.347Z,98703.28
2023-04-14T06:08:41.738Z,98708.47
2023-04-14T06:14:13.162Z,98706.37
2023-04-14T06:16:47.399Z,98720.28
2023-04-14T06:23:06.912Z,98733.00
2023-04-14T06:25:04.704Z,98738.47
2023-04-14T06:27:33.330Z,98731.13
2023-04-14T06:30:01.412Z,98743.47
2023-04-14T06:32:28.586Z,98749.31
2023-04-14T06:35:06.134Z,98748.28
2023-04-14T06:37:35.255Z,98751.03
2023-04-14T06:40:11.952Z,98744.88
2023-04-14T06:42:41.109Z,98752.78
2023-04-14T06:45:08.850Z,98751.22
2023-04-14T06:47:41.111Z,98749.56
2023-04-14T06:50:20.097Z,98750.56
2023-04-14T06:52:57.786Z,98736.06
2023-04-14T06:55:28.668Z,98736.28
2023-04-14T06:58:24.321Z,98736.94
2023-04-14T07:01:22.452Z,98736.03
2023-04-14T07:03:50.242Z,98739.97
2023-04-14T07:06:27.049Z,98732.12
2023-04-14T07:08:57.217Z,98729.81
2023-04-14T07:11:25.835Z,98732.97
2023-04-14T07:14:02.585Z,98731.84
2023-04-14T07:23:30.016Z,98731.28
2023-04-14T07:26:08.188Z,98727.16
2023-04-14T07:28:44.439Z,98725.56
2023-04-14T07:31:13.046Z,98720.00
2023-04-14T07:33:40.168Z,98715.31
2023-04-14T07:39:02.893Z,98724.22
2023-04-14T07:41:30.503Z,98733.41
2023-04-14T07:44:07.749Z,98740.81
2023-04-14T07:46:36.451Z,98737.47
2023-04-14T07:49:10.019Z,98737.59
2023-04-14T07:51:37.622Z,98743.81
2023-04-14T07:54:11.392Z,98762.84
2023-04-14T07:56:49.613Z,98760.97
2023-04-14T07:59:16.838Z,98762.62
2023-04-14T08:01:44.120Z,98770.38
2023-04-14T08:04:11.556Z,98787.59
2023-04-14T08:06:39.393Z,98790.88
2023-04-14T08:09:26.486Z,98805.28
2023-04-14T08:11:53.810Z,98821.03
2023-04-14T08:14:21.435Z,98817.50
2023-04-14T08:16:48.886Z,98809.75
2023-04-14T08:19:20.731Z,98814.69
2023-04-14T08:21:48.605Z,98805.97
2023-04-14T08:24:16.670Z,98812.22
2023-04-14T08:26:43.824Z,98814.75
2023-04-14T08:29:38.250Z,98821.31
2023-04-14T08:32:07.730Z,98809.78
2023-04-14T08:34:37.226Z,98808.69
2023-04-14T08:37:07.509Z,98801.88
2023-04-14T08:39:36.903Z,98793.69
2023-04-14T08:42:07.542Z,98799.66
2023-04-14T08:44:34.729Z,98792.19
2023-04-14T08:47:02.753Z,98791.81
2023-04-14T08:49:47.261Z,98787.34
2023-04-14T08:52:22.698Z,98790.03
2023-04-14T08:54:51.925Z,98798.00
2023-04-14T08:57:20.593Z,98795.72
2023-04-14T08:59:52.419Z,98791.25
2023-04-14T09:02:19.935Z,98785.19
2023-04-14T09:04:48.050Z,98789.50
2023-04-14T09:07:16.205Z,98817.81
2023-04-14T09:09:46.500Z,98819.81
2023-04-14T09:12:16.147Z,98824.22
2023-04-14T09:14:45.186Z,98821.97
2023-04-14T09:17:12.754Z,98844.16
2023-04-14T09:20:34.613Z,98833.00
2023-04-14T09:22:30.165Z,98846.47
2023-04-14T09:24:58.785Z,98842.22
2023-04-14T09:27:26.908Z,98843.06
2023-04-14T09:29:59.333Z,98856.72
2023-04-14T09:32:26.867Z,98860.03
2023-04-14T09:34:56.550Z,98862.97
2023-04-14T09:37:28.474Z,98867.41
2023-04-14T09:39:57.492Z,98865.44
2023-04-14T09:42:41.498Z,98866.03
2023-04-14T09:45:13.751Z,98868.09
2023-04-14T09:47:46.065Z,98867.94
2023-04-14T09:50:13.370Z,98861.44
2023-04-14T09:52:49.621Z,98867.16
2023-04-14T09:55:19.194Z,98864.06
2023-04-14T09:58:06.385Z,98859.81
2023-04-14T10:00:33.471Z,98853.34
2023-04-14T10:03:11.414Z,98850.84
2023-04-14T10:05:44.013Z,98835.37
2023-04-14T10:08:17.432Z,98840.16
2023-04-14T10:10:44.576Z,98838.47
2023-04-14T10:13:16.303Z,98843.84
2023-04-14T10:15:43.797Z,98844.56
2023-04-14T10:18:10.986Z,98838.84
2023-04-14T10:20:38.836Z,98840.03
2023-04-14T10:23:07.348Z,98841.87
2023-04-14T10:25:34.702Z,98836.88
2023-04-14T10:28:04.127Z,98842.31
2023-04-14T10:30:31.476Z,98863.63
2023-04-14T10:32:58.840Z,98861.12
2023-04-14T10:35:28.413Z,98880.50
2023-04-14T10:38:07.197Z,98887.09
2023-04-14T10:40:51.023Z,98888.53
2023-04-14T10:43:21.225Z,98898.94
2023-04-14T10:46:08.226Z,98904.34
2023-04-14T10:48:37.194Z,98909.38
2023-04-14T10:51:09.295Z,98915.94
2023-04-14T10:53:39.074Z,98916.34
2023-04-14T10:56:06.637Z,98927.53
2023-04-14T10:58:35.730Z,98922.25
2023-04-14T11:01:33.836Z,98923.03
2023-04-14T11:04:21.810Z,98927.09
2023-04-14T11:06:54.773Z,98932.09
2023-04-14T11:09:38.614Z,98930.88
2023-04-14T11:12:28.215Z,98939.66
2023-04-14T11:15:05.045Z,98940.50
2023-04-14T11:17:34.332Z,98942.81
2023-04-14T11:20:01.742Z,98943.66
2023-04-14T11:22:42.935Z,98947.78
2023-04-14T11:25:16.005Z,98945.00
2023-04-14T11:27:44.501Z,98951.91
2023-04-14T11:30:17.072Z,98950.19
2023-04-14T11:32:54.763Z,98962.63
2023-04-14T11:35:24.310Z,98971.00
2023-04-14T11:37:56.289Z,98965.28
2023-04-14T11:40:24.940Z,98971.47
2023-04-14T11:42:58.778Z,98968.41
2023-04-14T11:45:30.211Z,98971.78
2023-04-14T11:48:05.119Z,98969.59
2023-04-14T11:50:41.650Z,98971.63
2023-04-14T11:53:14.916Z,98971.97
2023-04-14T11:55:48.342Z,98967.16
2023-04-14T11:58:32.285Z,98962.75
2023-04-14T12:00:59.644Z,98957.59
2023-04-14T12:03:38.082Z,98959.03
2023-04-14T12:06:12.338Z,98963.53
2023-04-14T12:08:42.701Z,98955.03
2023-04-14T12:11:14.651Z,98952.94
2023-04-14T12:13:45.343Z,98948.03
2023-04-14T12:16:13.697Z,98943.50
2023-04-14T12:18:41.989Z,98942.09
2023-04-14T12:21:12.095Z,98944.53
2023-04-14T12:23:42.902Z,98944.59
2023-04-14T12:26:12.451Z,98944.94
2023-04-14T12:28:42.148Z,98941.91
2023-04-14T12:31:10.731Z,98949.87
2023-04-14T12:33:38.246Z,98949.16
2023-04-14T12:36:17.691Z,98947.13
2023-04-14T12:38:52.928Z,98940.19
2023-04-14T12:41:23.581Z,98943.47
2023-04-14T12:43:51.518Z,98945.78
2023-04-14T12:46:28.544Z,98944.75
2023-04-14T12:48:58.285Z,98945.06
2023-04-14T12:51:25.491Z,98936.34
2023-04-14T12:53:54.282Z,98937.00
2023-04-14T12:56:24.762Z,98930.44
2023-04-14T12:58:51.934Z,98940.06
2023-04-14T13:01:21.297Z,98944.31
2023-04-14T13:03:52.695Z,98955.94
2023-04-14T13:06:21.554Z,98961.62
2023-04-14T13:08:50.339Z,98955.38
2023-04-14T13:11:20.679Z,98964.69
2023-04-14T13:13:54.264Z,98962.78
2023-04-14T13:16:27.688Z,98961.16
2023-04-14T13:19:00.502Z,98965.59
2023-04-14T13:21:28.223Z,98977.03
2023-04-14T13:23:55.404Z,98977.94
2023-04-14T13:26:25.737Z,98976.12
2023-04-14T13:29:00.359Z,98968.16
2023-04-14T13:31:37.465Z,98974.22
2023-04-14T13:34:18.338Z,98967.41
2023-04-14T13:36:55.299Z,98978.53
2023-04-14T13:39:23.195Z,98979.19
2023-04-14T13:41:53.267Z,98981.59
2023-04-14T13:44:20.404Z,98978.28
2023-04-14T13:46:58.961Z,98978.25
2023-04-14T13:49:30.993Z,98977.78
2023-04-14T13:51:58.306Z,98985.38
2023-04-14T13:54:25.672Z,98999.34
2023-04-14T13:56:52.917Z,98990.50
2023-04-14T14:02:34.315Z,98986.78
2023-04-14T14:05:04.680Z,98982.16
2023-04-14T14:07:37.047Z,98990.53
2023-04-14T14:10:11.656Z,99004.03
2023-04-14T14:12:38.830Z,99004.34
2023-04-14T14:15:07.949Z,99000.06
2023-04-14T14:17:35.144Z,98996.69
2023-04-14T14:20:02.284Z,99001.53
2023-04-14T14:22:29.472Z,98994.63
2023-04-14T14:25:06.922Z,99000.47
2023-04-14T14:27:42.658Z,99004.19
2023-04-14T14:30:10.064Z,99010.94
2023-04-14T14:32:37.405Z,99004.66
2023-04-14T14:35:05.126Z,99003.03
2023-04-14T14:37:32.104Z,99006.59
2023-04-14T14:39:59.205Z,99004.50
2023-04-14T14:42:27.143Z,99014.97
2023-04-14T14:44:54.542Z,99019.69
2023-04-14T14:47:21.651Z,99012.53
2023-04-14T14:49:59.030Z,99019.53
2023-04-14T14:52:34.729Z,99027.91
2023-04-14T14:55:02.297Z,99025.97
2023-04-14T14:57:29.981Z,99026.37
2023-04-14T14:59:57.412Z,99033.87
2023-04-14T15:02:25.842Z,99031.97
2023-04-14T15:04:53.812Z,99037.72
2023-04-14T15:07:21.042Z,99043.97
2023-04-14T15:09:49.958Z,99045.19
2023-04-14T15:12:17.770Z,99054.56
2023-04-14T15:14:45.084Z,99057.00
2023-04-14T15:17:12.170Z,99066.69
2023-04-14T15:19:39.409Z,99071.41
2023-04-14T15:22:06.605Z,99080.88
2023-04-14T15:24:33.617Z,99083.88
2023-04-14T15:27:02.084Z,99082.06
2023-04-14T15:29:29.047Z,99082.53
2023-04-14T15:31:56.244Z,99077.56
2023-04-14T15:34:23.720Z,99076.50
2023-04-14T15:36:50.699Z,99083.88
2023-04-14T15:39:18.405Z,99084.81
2023-04-14T15:41:47.693Z,99087.16
2023-04-14T15:44:14.790Z,99086.78
2023-04-14T15:46:41.855Z,99085.06
2023-04-14T15:49:08.868Z,99081.91
2023-04-14T15:51:36.137Z,99085.53
2023-04-14T15:54:03.422Z,99096.94
2023-04-14T15:56:30.955Z,99092.88
2023-04-14T15:58:57.893Z,99095.81
2023-04-14T16:01:25.036Z,99094.69
2023-04-14T16:03:52.946Z,99096.28
2023-04-14T16:06:20.173Z,99107.16
2023-04-14T16:08:47.156Z,99104.16
2023-04-14T16:11:17.639Z,99095.03
2023-04-14T16:13:45.830Z,99095.97
2023-04-14T16:16:14.610Z,99095.97
2023-04-14T16:18:42.736Z,99099.41
2023-04-14T16:21:09.911Z,99099.41
2023-04-14T16:23:37.042Z,99096.56
2023-04-14T16:26:04.237Z,99091.91
2023-04-14T16:28:31.673Z,99096.53
2023-04-14T16:31:03.226Z,99097.69
2023-04-14T16:33:31.952Z,99104.78
2023-04-14T16:36:08.227Z,99104.22
2023-04-14T16:38:35.830Z,99106.41
2023-04-14T16:41:03.679Z,99104.53
2023-04-14T16:43:30.784Z,99098.44
2023-04-14T16:46:04.650Z,99101.69
2023-04-14T16:48:32.839Z,99107.63
2023-04-14T16:51:08.726Z,99101.87
2023-04-14T16:53:36.750Z,99107.97
2023-04-14T16:56:07.913Z,99104.06
2023-04-14T16:58:36.790Z,99101.97
2023-04-14T17:01:04.963Z,99112.62
2023-04-14T17:03:32.243Z,99113.09
2023-04-14T17:05:59.496Z,99108.41
2023-04-14T17:08:26.886Z,99118.50
2023-04-14T17:10:53.975Z,99109.66
2023-04-14T17:13:21.669Z,99110.94
2023-04-14T17:15:58.909Z,99109.44
2023-04-14T17:18:33.738Z,99111.56
2023-04-14T17:21:00.878Z,99109.28
2023-04-14T17:23:27.998Z,99119.72
2023-04-14T17:25:56.287Z,99114.47
2023-04-14T17:28:23.828Z,99120.50
2023-04-14T17:30:51.417Z,99124.78
2023-04-14T17:33:20.169Z,99123.19
2023-04-14T17:35:47.511Z,99110.44
2023-04-14T17:38:14.512Z,99115.81
2023-04-14T17:40:41.572Z,99115.69
2023-04-14T17:43:08.580Z,99115.53
2023-04-14T17:45:35.646Z,99117.31
2023-04-14T17:48:02.654Z,99118.75
2023-04-14T17:50:29.727Z,99119.72
2023-04-14T17:52:58.343Z,99117.44
2023-04-14T17:55:25.343Z,99118.41
2023-04-14T17:57:53.095Z,99124.97
2023-04-14T18:00:20.240Z,99127.31
2023-04-14T18:02:47.271Z,99129.22
2023-04-14T18:05:14.555Z,99132.16
2023-04-14T18:07:42.398Z,99134.53
2023-04-14T18:10:09.719Z,99147.00
2023-04-14T18:12:36.826Z,99149.72
2023-04-14T18:15:05.456Z,99142.06
2023-04-14T18:17:32.598Z,99144.69
2023-04-14T18:19:59.736Z,99156.06
2023-04-14T18:22:27.649Z,99152.84
2023-04-14T18:24:54.618Z,99155.03
2023-04-14T18:29:53.270Z,99159.53
2023-04-14T18:32:21.003Z,99165.56
2023-04-14T18:34:48.461Z,99158.22
2023-04-14T18:37:16.048Z,99161.78
2023-04-14T18:39:43.320Z,99158.44
2023-04-14T18:42:10.801Z,99162.59
2023-04-14T18:44:37.871Z,99164.75
2023-04-14T18:47:04.789Z,99165.66
2023-04-14T18:49:31.784Z,99158.25
2023-04-14T18:51:58.780Z,99163.34
2023-04-14T18:54:25.766Z,99166.31
2023-04-14T18:56:52.759Z,99166.97
2023-04-14T18:59:20.286Z,99164.03
2023-04-14T19:01:47.580Z,99171.13
2023-04-14T19:04:14.628Z,99164.09
2023-04-14T19:06:42.066Z,99160.75
2023-04-14T19:09:09.066Z,99165.13
2023-04-14T19:11:36.988Z,99158.56
2023-04-14T19:14:05.101Z,99162.25
2023-04-14T19:16:33.036Z,99162.06
2023-04-14T19:19:00.513Z,99161.25
2023-04-14T19:21:27.693Z,99158.34
2023-04-14T19:23:56.905Z,99161.53
2023-04-14T19:26:26.822Z,99153.72
2023-04-14T19:28:54.142Z,99159.16
2023-04-14T19:31:21.770Z,99164.22
2023-04-14T19:33:49.379Z,99156.00
2023-04-14T19:36:17.844Z,99163.19
2023-04-14T19:38:44.986Z,99162.72
2023-04-14T19:41:12.346Z,99168.47
2023-04-14T19:43:39.432Z,99170.13
2023-04-14T19:46:08.163Z,99166.47
2023-04-14T19:48:35.474Z,99160.16
2023-04-14T19:51:02.733Z,99165.00
2023-04-14T19:53:29.890Z,99178.84
2023-04-14T19:55:58.447Z,99169.91
2023-04-14T19:58:27.933Z,99176.53
2023-04-14T20:00:59.140Z,99178.31
2023-04-14T20:03:27.074Z,99186.81
2023-04-14T20:05:56.927Z,99180.50
2023-04-14T20:08:25.345Z,99185.66
2023-04-14T20:10:54.366Z,99179.50
2023-04-14T20:13:23.343Z,99178.50
2023-04-14T20:15:55.038Z,99179.81
2023-04-14T20:18:22.937Z,99183.97
2023-04-14T20:20:50.473Z,99180.06
2023-04-14T20:23:17.551Z,99192.56
2023-04-14T20:25:45.863Z,99187.97
2023-04-14T20:28:12.898Z,99186.19
2023-04-14T20:30:40.189Z,99184.97
2023-04-14T20:33:07.354Z,99188.00
2023-04-14T20:35:37.547Z,99199.16
2023-04-14T20:38:04.700Z,99195.97
2023-04-14T20:40:31.723Z,99196.06
2023-04-14T20:42:59.553Z,99204.53
2023-04-14T20:45:26.669Z,99202.63
2023-04-14T20:47:53.691Z,99196.53
2023-04-14T20:50:20.763Z,99203.88
2023-04-14T20:52:47.727Z,99196.06
2023-04-14T20:55:14.826Z,99195.34
2023-04-14T20:57:45.315Z,99194.34
2023-04-14T21:00:17.155Z,99196.78
2023-04-14T21:02:44.691Z,99196.88
2023-04-14T21:05:12.176Z,99205.00
2023-04-14T21:07:43.626Z,99196.84
2023-04-14T21:10:12.104Z,99199.50
2023-04-14T21:15:06.417Z,99205.31
2023-04-14T21:15:48.919Z,99204.69
2023-04-14T21:18:14.236Z,99201.59
2023-04-14T21:20:43.666Z,99203.44
2023-04-14T21:23:10.970Z,99200.25
2023-04-14T21:25:37.970Z,99203.22
2023-04-14T21:28:05.304Z,99209.09
2023-04-14T21:30:32.441Z,99208.69
2023-04-14T21:32:59.487Z,99214.00
2023-04-14T21:35:26.577Z,99216.41
2023-04-14T21:37:53.673Z,99218.81
2023-04-14T21:40:21.703Z,99214.63
2023-04-14T21:42:48.793Z,99213.16
2023-04-14T21:45:15.834Z,99215.63
2023-04-14T21:47:43.100Z,99209.75
2023-04-14T21:50:10.752Z,99211.53
2023-04-14T21:52:37.680Z,99210.81
2023-04-14T21:55:05.117Z,99218.06
2023-04-14T21:57:43.705Z,99213.03
2023-04-14T22:00:18.159Z,99214.19
2023-04-14T22:02:45.868Z,99220.03
2023-04-14T22:05:14.036Z,99214.25
2023-04-14T22:07:41.552Z,99212.50
2023-04-14T22:10:09.250Z,99218.41
2023-04-14T22:12:36.359Z,99215.81
2023-04-14T22:15:08.903Z,99219.38
2023-04-14T22:17:36.965Z,99211.94
2023-04-14T22:20:06.309Z,99208.47
2023-04-14T22:22:33.986Z,99205.81
2023-04-14T22:25:02.084Z,99204.03
2023-04-14T22:27:29.135Z,99216.56
2023-04-14T22:29:56.039Z,99212.72
2023-04-14T22:32:23.038Z,99214.28
2023-04-14T22:34:50.129Z,99216.25
2023-04-14T22:37:17.737Z,99217.44
2023-04-14T22:39:44.701Z,99217.03
2023-04-14T22:42:11.683Z,99219.41
2023-04-14T22:44:38.919Z,99218.66
2023-04-14T22:47:05.875Z,99216.50
2023-04-14T22:49:32.821Z,99214.91
2023-04-14T22:51:59.837Z,99215.22
2023-04-14T22:54:27.389Z,99213.53
2023-04-14T22:56:54.438Z,99217.81
2023-04-14T22:59:21.784Z,99218.22
2023-04-14T23:01:49.262Z,99207.00
2023-04-14T23:04:16.498Z,99215.13
2023-04-14T23:06:43.893Z,99217.59
2023-04-14T23:09:11.100Z,99220.09
2023-04-14T23:11:38.166Z,99217.56
2023-04-14T23:14:05.260Z,99218.66
2023-04-14T23:16:32.691Z,99215.25
2023-04-14T23:19:00.050Z,99219.78
2023-04-14T23:21:27.764Z,99220.38
2023-04-14T23:23:54.793Z,99212.41
2023-04-14T23:26:22.199Z,99217.97
2023-04-14T23:28:49.232Z,99220.88
2023-04-14T23:31:17.632Z,99228.47
2023-04-14T23:33:45.610Z,99232.28
2023-04-14T23:36:13.660Z,99219.69
2023-04-14T23:38:41.328Z,99223.50
2023-04-14T23:41:08.449Z,99220.88
2023-04-14T23:43:35.536Z,99215.63
2023-04-14T23:46:03.177Z,99217.31
2023-04-14T23:48:30.609Z,99210.22
2023-04-14T23:51:02.078Z,99218.44
2023-04-14T23:53:45.063Z,99212.53
2023-04-14T23:56:11.995Z,99212.09
2023-04-14T23:58:39.242Z,99211.16
